首页
METAR-TAF:

METAR-TAF

机场 :

紋別機場

紋別, 日本

纬度: 44-15N, 经度: 143-32E, 海拔: 6米

当前天气观测

该预报发布于3小时和50分钟前的07:00 UTC
风速8节,风向北转西北
温度 17°C
湿度 82%
气压 1006 hPa
能见度10公里或以上
少量云层高于1500英尺
多云层高于2500英尺

METAR: RJEB 220700Z 33008KT 9999 FEW015 BKN025 17/14 Q1006

时间: 19:50 (10:50 UTC)


TAF: 丢失

超过4000个机场的气象观测和天气预报(METAR&TAF报告)。

可查询的气象台以黄色和红色小点在地图上表示。

将鼠标移到小点上方,可查看气象台名称。

然后点击查看天气观测和预报。

如需切换地图:点击带黑十字的绿色按钮放大地图;点击带横线的绿色按钮缩小地图;或者点击绿色箭头查看邻近地区的地图。


METAR-TAF: